Franceville, Gabon
Current Conditions -  °F | °C
As of 7:00 PM on Saturday 20 Dec 2014 (Local Time) from FCPD Reporting Station
Thunderstorm Thunderstorm  
Wind Chill: 79°   Ceiling: 13000
Heat Index: 82°   Visibility: 6mi
Dew Point: 73°   Wind: 7mph
Humidity: 83%   Direction: 40°NE
Pressure: 29.85"   Gusts: NA
Location:  1.63°S, 13.6°E
Report Text: FCPD 201800Z 04006KT 9999 TS SCT020 FEW026CB BKN130 26/23 Q1011
Loading
Personal Weather Stations






























Interactive Weather Map New forecast layout! Learn more

10-Day Weather Forecast

Advertisements
Track Severe Weather on mobile